Time;durP1;ratioP1;P1;durP2;ratioP2;P2;SDS_P1;SDS_P2;PMS_P1;PMS_P2;Temp;Humidity;BMP_temperature;BMP_pressure;BME280_temperature;BME280_humidity;BME280_pressure;Samples;Min_cycle;Max_cycle;Signal;HPM_P1;HPM_P2
2023/10/14 00:01:55;;;;;;;15.43;14.82;;;;;;;-141.02;100.00;41477.03;5094637;28;20185;-68
2023/10/14 00:04:26;;;;;;;15.77;15.18;;;;;;;-141.02;100.00;41478.94;5094284;28;20198;-68
2023/10/14 00:06:54;;;;;;;15.73;15.13;;;;;;;-141.02;100.00;41477.03;5094336;28;20285;-68
2023/10/14 00:09:25;;;;;;;15.75;15.15;;;;;;;-141.02;100.00;41400.28;5093876;28;20680;-67
2023/10/14 00:11:55;;;;;;;15.48;14.88;;;;;;;-141.02;100.00;41383.00;5094118;28;20658;-67
2023/10/14 00:14:23;;;;;;;14.45;13.95;;;;;;;-141.02;100.00;41348.47;5093827;28;20192;-67
2023/10/14 00:16:51;;;;;;;15.35;14.75;;;;;;;-141.02;100.00;41241.00;5094045;28;20190;-68
2023/10/14 00:19:19;;;;;;;15.05;14.45;;;;;;;-141.02;100.00;41185.34;5093694;28;20652;-67
2023/10/14 00:21:48;;;;;;;14.90;14.40;;;;;;;-141.02;100.00;41127.78;5093930;28;20200;-67
2023/10/14 00:24:25;;;;;;;14.70;14.20;;;;;;;-141.02;100.00;41106.69;5093658;28;20198;-67
2023/10/14 00:26:54;;;;;;;14.80;14.30;;;;;;;-141.02;100.00;41074.06;5093879;28;20273;-67
2023/10/14 00:29:21;;;;;;;14.70;14.20;;;;;;;-141.02;100.00;41077.91;5093783;28;20246;-67
2023/10/14 00:31:50;;;;;;;13.93;13.43;;;;;;;-141.02;100.00;41158.50;5093570;28;20225;-67
2023/10/14 00:34:21;;;;;;;14.50;14.00;;;;;;;-141.02;100.00;41112.44;5093456;28;20198;-67
2023/10/14 00:36:48;;;;;;;14.55;14.05;;;;;;;-141.02;100.00;41319.69;5093740;28;20208;-68
2023/10/14 00:39:16;;;;;;;14.63;14.13;;;;;;;-141.02;100.00;41131.63;5093322;28;20233;-67
2023/10/14 00:41:44;;;;;;;14.55;14.05;;;;;;;-141.02;100.00;41120.13;5093247;28;20586;-67
2023/10/14 00:44:13;;;;;;;15.00;14.50;;;;;;;-141.02;100.00;41139.31;5093442;28;20229;-67
2023/10/14 00:46:42;;;;;;;14.50;14.00;;;;;;;-141.02;100.00;41146.97;5093555;28;20228;-67
2023/10/14 00:49:11;;;;;;;14.65;14.15;;;;;;;-141.02;100.00;41177.69;5093728;28;20189;-67
2023/10/14 00:51:42;;;;;;;14.80;14.30;;;;;;;-141.02;100.00;41150.81;5093122;28;20303;-67
2023/10/14 00:54:11;;;;;;;14.63;14.13;;;;;;;-141.02;100.00;41120.13;5093292;28;20186;-58
2023/10/14 00:56:50;;;;;;;14.25;13.75;;;;;;;-141.02;100.00;40895.63;5093331;28;20194;-66
2023/10/14 00:59:19;;;;;;;14.55;14.05;;;;;;;-141.02;100.00;41143.16;5092878;28;20242;-68
2023/10/14 01:02:33;;;;;;;14.40;13.90;;;;;;;-141.02;100.00;41100.94;5092641;28;20655;-67
2023/10/14 01:05:18;;;;;;;14.60;14.10;;;;;;;-141.02;100.00;41133.56;5092820;28;20189;-67
2023/10/14 01:07:45;;;;;;;14.77;14.27;;;;;;;-141.02;100.00;41158.50;5093152;28;20182;-67
2023/10/14 01:10:13;;;;;;;15.10;14.60;;;;;;;-141.02;100.00;41216.06;5092714;28;20190;-67
2023/10/14 01:12:44;;;;;;;15.60;15.00;;;;;;;-141.02;100.00;41170.00;5092980;28;20229;-66
2023/10/14 01:15:47;;;;;;;14.57;14.07;;;;;;;-141.02;100.00;41154.66;5092774;28;20186;-67
2023/10/14 01:21:38;;;;;;;15.00;14.40;;;;;;;-141.02;100.00;41177.69;5092930;28;20597;-68
2023/10/14 01:24:15;;;;;;;14.80;14.30;;;;;;;-141.02;100.00;41150.81;5092541;28;20648;-67
2023/10/14 01:26:52;;;;;;;14.77;14.18;;;;;;;-141.02;100.00;41162.34;5092814;28;20646;-67
2023/10/14 01:29:25;;;;;;;14.68;14.07;;;;;;;-141.02;100.00;41193.03;5092590;28;20235;-65
2023/10/14 01:32:10;;;;;;;14.60;14.10;;;;;;;-141.02;100.00;41198.78;5092733;28;20236;-67
2023/10/14 01:34:43;;;;;;;15.73;15.13;;;;;;;-141.02;100.00;41202.63;5092392;28;20190;-65
2023/10/14 01:37:18;;;;;;;15.40;14.80;;;;;;;-141.02;100.00;41221.81;5092587;28;20185;-67
2023/10/14 01:39:50;;;;;;;15.70;15.10;;;;;;;-141.02;100.00;41244.84;5092663;28;20201;-67
2023/10/14 01:42:18;;;;;;;15.50;14.90;;;;;;;-141.02;100.00;41187.28;5092689;28;20182;-67
2023/10/14 01:45:28;;;;;;;15.10;14.50;;;;;;;-141.02;100.00;41210.31;5092901;28;20254;-67
2023/10/14 01:48:12;;;;;;;14.90;14.38;;;;;;;-141.02;100.00;41177.69;5092151;28;20197;-65
2023/10/14 01:50:47;;;;;;;14.95;14.35;;;;;;;-141.02;100.00;41212.22;5092060;28;20572;-66
2023/10/14 01:53:38;;;;;;;14.90;14.30;;;;;;;-141.02;100.00;41214.13;5092434;28;20260;-67
2023/10/14 01:56:06;;;;;;;15.35;14.75;;;;;;;-141.02;100.00;41229.50;5092473;28;20638;-67
2023/10/14 01:58:41;;;;;;;15.32;14.73;;;;;;;-141.02;100.00;41227.56;5092546;28;20211;-67
2023/10/14 02:01:15;;;;;;;15.20;14.70;;;;;;;-141.02;100.00;41206.47;5092105;28;20285;-66
2023/10/14 02:03:46;;;;;;;14.45;13.95;;;;;;;-141.02;100.00;41202.63;5092308;28;20235;-66
2023/10/14 02:06:18;;;;;;;14.75;14.25;;;;;;;-141.02;100.00;41208.38;5092053;28;20544;-67
2023/10/14 02:08:46;;;;;;;14.82;14.32;;;;;;;-141.02;100.00;41258.28;5092107;28;20186;-67
2023/10/14 02:11:25;;;;;;;14.90;14.40;;;;;;;-141.02;100.00;41223.72;5092253;28;20196;-67
2023/10/14 02:13:52;;;;;;;14.85;14.35;;;;;;;-141.02;100.00;41254.44;5093400;28;20625;-67
2023/10/14 02:16:25;;;;;;;15.25;14.75;;;;;;;-141.02;100.00;41252.53;5096019;28;20233;-67
2023/10/14 02:19:18;;;;;;;14.77;14.27;;;;;;;-141.02;100.00;41221.81;5096081;28;20186;-67
2023/10/14 02:21:59;;;;;;;14.85;14.35;;;;;;;-141.02;100.00;41183.44;5096271;28;20190;-67
2023/10/14 02:24:27;;;;;;;14.55;14.05;;;;;;;-141.02;100.00;41193.03;5096266;28;20571;-67
2023/10/14 02:27:12;;;;;;;14.43;13.93;;;;;;;-141.02;100.00;41162.34;5096232;28;20273;-67
2023/10/14 02:29:43;;;;;;;14.77;14.27;;;;;;;-141.02;100.00;41116.28;5095835;28;20690;-67
2023/10/14 02:32:12;;;;;;;15.00;14.40;;;;;;;-141.02;100.00;41100.94;5095719;28;20626;-65
2023/10/14 02:34:39;;;;;;;14.70;14.20;;;;;;;-141.02;100.00;41114.38;5095760;28;20201;-67
2023/10/14 02:37:53;;;;;;;14.70;14.20;;;;;;;-141.02;100.00;41093.25;5095691;28;20650;-67
2023/10/14 02:43:48;;;;;;;14.38;13.88;;;;;;;-141.02;100.00;41054.88;5094430;28;20258;-67
2023/10/14 02:46:20;;;;;;;14.25;13.75;;;;;;;-141.02;100.00;41022.25;5096078;28;20186;-67
2023/10/14 02:49:02;;;;;;;14.70;14.20;;;;;;;-141.02;100.00;41035.69;5095863;28;20201;-67
2023/10/14 02:51:36;;;;;;;14.85;14.35;;;;;;;-141.02;100.00;40970.47;5092493;28;20241;-66
2023/10/14 02:54:13;;;;;;;14.20;13.70;;;;;;;-141.02;100.00;40978.13;5095396;28;20640;-67
2023/10/14 02:56:56;;;;;;;14.50;14.00;;;;;;;-141.02;100.00;40947.44;5095581;28;20687;-67
2023/10/14 02:59:43;;;;;;;13.80;13.40;;;;;;;-141.02;100.00;40893.72;5095498;28;20281;-67
2023/10/14 03:02:24;;;;;;;13.80;13.40;;;;;;;-141.02;100.00;40847.66;5081499;28;20209;-67
2023/10/14 03:05:08;;;;;;;13.40;13.00;;;;;;;-141.02;100.00;40807.38;5095206;28;20223;-66
2023/10/14 03:07:47;;;;;;;13.10;12.70;;;;;;;-141.02;100.00;40805.47;5095494;28;20190;-67
2023/10/14 03:10:19;;;;;;;13.48;13.07;;;;;;;-141.02;100.00;40759.41;5095086;28;20228;-67
2023/10/14 03:12:49;;;;;;;13.77;13.38;;;;;;;-141.02;100.00;40732.56;5095214;28;20229;-66
2023/10/14 03:15:23;;;;;;;12.93;12.52;;;;;;;-141.02;100.00;40709.53;5094971;28;20733;-66
2023/10/14 03:17:55;;;;;;;12.73;12.32;;;;;;;-141.02;100.00;40701.84;5094895;28;20246;-68
2023/10/14 03:21:00;;;;;;;12.30;11.90;;;;;;;-141.02;100.00;40682.66;5095501;28;20186;-67
2023/10/14 03:23:28;;;;;;;13.23;12.82;;;;;;;-141.02;100.00;40705.69;5093861;28;20201;-67
2023/10/14 03:26:05;;;;;;;13.10;12.70;;;;;;;-141.02;100.00;40709.53;5093908;28;20193;-67
2023/10/14 03:28:37;;;;;;;13.20;12.80;;;;;;;-141.02;100.00;40740.22;5095061;28;20213;-66
2023/10/14 03:31:09;;;;;;;13.15;12.75;;;;;;;-141.02;100.00;40705.69;5094716;28;20190;-67
2023/10/14 03:33:46;;;;;;;12.80;12.40;;;;;;;-141.02;100.00;40680.75;5095160;28;20217;-67
2023/10/14 03:36:16;;;;;;;12.60;12.20;;;;;;;-141.02;100.00;40694.19;5094609;28;20197;-64
2023/10/14 03:38:46;;;;;;;12.70;12.30;;;;;;;-141.02;100.00;40611.69;5094858;28;20276;-66
2023/10/14 03:41:18;;;;;;;12.50;12.10;;;;;;;-141.02;100.00;40611.69;5094755;28;20186;-67
2023/10/14 03:43:54;;;;;;;12.52;12.13;;;;;;;-141.02;100.00;40632.78;5094678;28;20590;-67
2023/10/14 03:46:31;;;;;;;12.57;12.18;;;;;;;-141.02;100.00;40646.22;5094676;28;20258;-66
2023/10/14 03:48:58;;;;;;;12.82;12.43;;;;;;;-141.02;100.00;40651.97;5094612;28;20185;-67
2023/10/14 03:51:27;;;;;;;12.60;12.20;;;;;;;-141.02;100.00;40686.50;5094517;28;20241;-66
2023/10/14 03:53:55;;;;;;;12.77;12.38;;;;;;;-141.02;100.00;40653.88;5094520;28;20201;-65
2023/10/14 03:56:25;;;;;;;12.63;12.23;;;;;;;-141.02;100.00;40671.16;5094089;28;20579;-66
2023/10/14 03:58:55;;;;;;;12.85;12.45;;;;;;;-141.02;100.00;40648.13;5094088;28;20193;-66
2023/10/14 04:01:28;;;;;;;12.50;12.10;;;;;;;-141.02;100.00;40648.13;5094625;28;20198;-66
2023/10/14 04:03:56;;;;;;;12.65;12.25;;;;;;;-141.02;100.00;40621.28;5093925;28;20190;-67
2023/10/14 04:06:25;;;;;;;12.50;12.10;;;;;;;-141.02;100.00;40621.28;5093942;28;20225;-67
2023/10/14 04:08:53;;;;;;;12.68;12.27;;;;;;;-141.02;100.00;40638.53;5093882;28;20648;-66
2023/10/14 04:11:27;;;;;;;12.63;12.23;;;;;;;-141.02;100.00;40398.75;5094105;28;20296;-67
2023/10/14 04:14:02;;;;;;;13.30;12.90;;;;;;;-141.02;100.00;40655.81;5094100;28;20213;-67
2023/10/14 04:16:49;;;;;;;12.90;12.50;;;;;;;-141.02;100.00;40669.25;5093796;28;20185;-67
2023/10/14 04:19:27;;;;;;;13.25;12.85;;;;;;;-141.02;100.00;40690.34;5094139;28;20259;-66
2023/10/14 04:21:58;;;;;;;13.60;13.20;;;;;;;-141.02;100.00;40736.38;5093936;28;20221;-67
2023/10/14 04:24:29;;;;;;;13.48;13.07;;;;;;;-141.02;100.00;40778.59;5093604;28;20557;-66
2023/10/14 04:27:16;;;;;;;13.90;13.40;;;;;;;-141.02;100.00;40816.97;5093575;28;20569;-67
2023/10/14 04:29:51;;;;;;;13.35;12.95;;;;;;;-141.02;100.00;40868.78;5093545;28;20190;-66
2023/10/14 04:32:27;;;;;;;13.10;12.70;;;;;;;-141.02;100.00;40955.09;5093776;28;20556;-66
2023/10/14 04:34:57;;;;;;;12.98;12.57;;;;;;;-141.02;100.00;40947.44;5093452;28;20194;-66
2023/10/14 04:37:27;;;;;;;13.00;12.60;;;;;;;-141.02;100.00;40958.94;5093334;28;20247;-66
2023/10/14 04:39:58;;;;;;;12.45;12.05;;;;;;;-141.02;100.00;41020.34;5093626;28;20194;-66
2023/10/14 04:42:39;;;;;;;12.68;12.27;;;;;;;-141.02;100.00;41039.53;5093293;28;20198;-67
2023/10/14 04:45:07;;;;;;;12.52;12.13;;;;;;;-141.02;100.00;41089.41;5093593;28;20262;-57
2023/10/14 04:47:38;;;;;;;12.50;12.10;;;;;;;-141.02;100.00;41074.06;5093500;28;20190;-66
2023/10/14 04:50:13;;;;;;;11.98;11.57;;;;;;;-141.02;100.00;41083.66;5093451;28;20269;-65
2023/10/14 04:52:41;;;;;;;12.00;11.60;;;;;;;-141.02;100.00;41081.75;5092870;28;20265;-66
2023/10/14 04:55:20;;;;;;;12.02;11.63;;;;;;;-141.02;100.00;41100.94;5092981;28;20194;-66
2023/10/14 04:58:05;;;;;;;11.95;11.55;;;;;;;-141.02;100.00;41024.19;5093385;28;20190;-66
2023/10/14 05:00:33;;;;;;;11.90;11.50;;;;;;;-141.02;100.00;41029.94;5093207;28;20190;-66
2023/10/14 05:03:02;;;;;;;11.70;11.30;;;;;;;-141.02;100.00;41016.50;5093266;28;20627;-66
2023/10/14 05:05:33;;;;;;;12.20;11.80;;;;;;;-141.02;100.00;40966.63;5092797;28;20228;-67
2023/10/14 05:08:03;;;;;;;11.63;11.23;;;;;;;-141.02;100.00;40937.84;5092842;28;20549;-66
2023/10/14 05:10:30;;;;;;;11.60;11.30;;;;;;;-141.02;100.00;40912.91;5093119;28;20193;-67
2023/10/14 05:12:57;;;;;;;11.10;10.80;;;;;;;-141.02;100.00;40903.31;5092972;28;20230;-64
2023/10/14 05:15:27;;;;;;;11.05;10.75;;;;;;;-141.02;100.00;40886.03;5092633;28;20653;-66
2023/10/14 05:18:00;;;;;;;10.80;10.50;;;;;;;-141.02;100.00;40939.75;5092967;28;20193;-67
2023/10/14 05:20:54;;;;;;;11.27;10.98;;;;;;;-141.02;100.00;40958.94;5092621;28;20662;-66
2023/10/14 05:23:19;;;;;;;11.20;10.90;;;;;;;-141.02;100.00;40993.47;5092467;28;20194;-67
2023/10/14 05:25:49;;;;;;;11.50;11.20;;;;;;;-141.02;100.00;41020.34;5092761;28;20201;-66
2023/10/14 05:28:16;;;;;;;11.98;11.57;;;;;;;-141.02;100.00;41005.00;5092433;28;20202;-66
2023/10/14 05:30:49;;;;;;;11.90;11.50;;;;;;;-141.02;100.00;41047.22;5092428;28;20200;-66
2023/10/14 05:33:16;;;;;;;12.00;11.60;;;;;;;-141.02;100.00;41076.00;5092615;28;20271;-67
2023/10/14 05:35:44;;;;;;;12.82;12.43;;;;;;;-141.02;100.00;41112.44;5092533;28;20742;-65
2023/10/14 05:38:12;;;;;;;13.00;12.60;;;;;;;-141.02;100.00;41077.91;5092290;28;20236;-66
2023/10/14 05:40:40;;;;;;;12.85;12.45;;;;;;;-141.02;100.00;41131.63;5092986;28;20243;-67
2023/10/14 05:43:07;;;;;;;13.15;12.75;;;;;;;-141.02;100.00;41150.81;5092216;28;20194;-67
2023/10/14 05:45:35;;;;;;;13.40;13.00;;;;;;;-141.02;100.00;41231.41;5092526;28;20255;-66
2023/10/14 05:48:04;;;;;;;13.48;13.07;;;;;;;-141.02;100.00;41244.84;5092244;28;20284;-65
2023/10/14 05:50:31;;;;;;;14.13;13.63;;;;;;;-141.02;100.00;41212.22;5092042;28;20598;-66
2023/10/14 05:53:01;;;;;;;14.25;13.75;;;;;;;-141.02;100.00;41223.72;5092032;28;20256;-67
2023/10/14 05:55:29;;;;;;;14.73;14.23;;;;;;;-141.02;100.00;41252.53;5092397;28;20189;-66
2023/10/14 05:58:00;;;;;;;14.63;14.13;;;;;;;-141.02;100.00;41302.41;5093298;28;20263;-65
2023/10/14 06:00:27;;;;;;;14.40;13.90;;;;;;;-141.02;100.00;41323.50;5092405;28;20220;-67
2023/10/14 06:02:56;;;;;;;14.85;14.35;;;;;;;-141.02;100.00;41333.09;5092330;28;20198;-67
2023/10/14 06:05:24;;;;;;;15.60;15.00;;;;;;;-141.02;97.86;41361.91;5091937;28;20204;-66
2023/10/14 06:07:59;;;;;;;15.48;14.88;;;;;;;-141.02;97.28;41384.91;5091947;28;20284;-67
2023/10/14 06:10:31;;;;;;;15.73;15.13;;;;;;;-141.02;97.18;41404.09;5092014;28;20254;-66
2023/10/14 06:12:58;;;;;;;15.75;15.15;;;;;;;-141.02;96.45;41400.28;5092417;28;20213;-67
2023/10/14 06:15:26;;;;;;;15.70;15.10;;;;;;;-141.02;95.40;41415.63;5092262;28;20274;-65
2023/10/14 06:17:55;;;;;;;16.15;15.45;;;;;;;-141.02;94.70;41407.94;5092192;28;20193;-66
2023/10/14 06:20:23;;;;;;;16.02;15.43;;;;;;;-141.02;94.20;41450.16;5092389;28;20194;-65
2023/10/14 06:22:50;;;;;;;16.40;15.70;;;;;;;-141.02;91.97;41471.28;5092068;28;20200;-64
2023/10/14 06:25:20;;;;;;;16.20;15.50;;;;;;;-141.02;91.10;41467.44;5091856;28;20716;-66
2023/10/14 06:27:49;;;;;;;16.35;15.68;;;;;;;-141.02;90.71;41496.22;5091779;28;20194;-66
2023/10/14 06:30:20;;;;;;;16.75;16.05;;;;;;;-141.02;90.17;41505.81;5092139;28;20259;-67
2023/10/14 06:32:52;;;;;;;17.08;16.27;;;;;;;-141.02;88.60;41565.31;5091721;28;20213;-67
2023/10/14 06:35:20;;;;;;;17.00;16.30;;;;;;;-141.02;88.47;41561.47;5091976;28;20198;-66
2023/10/14 06:37:48;;;;;;;17.15;16.35;;;;;;;-141.02;87.42;41580.66;5092012;28;20197;-67
2023/10/14 06:40:18;;;;;;;17.00;16.30;;;;;;;-141.02;87.82;41599.84;5092281;28;20207;-66
2023/10/14 06:42:49;;;;;;;16.55;15.85;;;;;;;-141.02;86.92;41613.28;5091675;28;20201;-66
2023/10/14 06:45:21;;;;;;;17.17;16.38;;;;;;;-141.02;87.49;41634.38;5091732;28;20656;-65
2023/10/14 06:47:51;;;;;;;17.23;16.42;;;;;;;-141.02;87.65;41668.94;5092210;28;20190;-64
2023/10/14 06:50:25;;;;;;;17.33;16.52;;;;;;;-141.02;86.26;41630.56;5091626;28;20193;-66
2023/10/14 06:52:58;;;;;;;17.08;16.27;;;;;;;-141.02;85.83;41653.59;5092136;28;20221;-66
2023/10/14 06:55:26;;;;;;;17.17;16.38;;;;;;;-141.02;85.80;41663.19;5091572;28;20276;-67
2023/10/14 06:57:55;;;;;;;17.05;16.25;;;;;;;-141.02;85.79;41676.59;5091826;28;20568;-67
2023/10/14 07:00:29;;;;;;;17.00;16.25;;;;;;;-141.02;86.55;41655.50;5091761;28;20197;-67
2023/10/14 07:02:59;;;;;;;16.98;16.27;;;;;;;-141.02;84.86;41676.59;5095231;28;20190;-66
2023/10/14 07:05:27;;;;;;;16.92;16.23;;;;;;;-141.02;85.30;41672.78;5095338;28;20205;-66
2023/10/14 07:07:55;;;;;;;17.27;16.48;;;;;;;-141.02;84.07;41707.31;5095383;28;20220;-67
2023/10/14 07:10:27;;;;;;;17.23;16.42;;;;;;;-141.02;84.98;41711.16;5095302;28;20271;-66
2023/10/14 07:12:58;;;;;;;16.67;15.98;;;;;;;-141.02;84.99;41722.66;5095258;28;20210;-66
2023/10/14 07:15:26;;;;;;;16.98;16.23;;;;;;;-141.02;84.43;41738.03;5094933;28;20565;-67
2023/10/14 07:17:54;;;;;;;17.42;16.63;;;;;;;-141.02;83.44;41764.88;5095214;28;20205;-66
2023/10/14 07:20:22;;;;;;;17.20;16.40;;;;;;;-141.02;82.64;41743.78;5095006;28;20250;-66
2023/10/14 07:22:49;;;;;;;17.95;17.05;;;;;;;-141.02;81.24;41726.50;5095125;28;20236;-67
2023/10/14 07:25:18;;;;;;;17.90;17.10;;;;;;;-141.02;79.24;41812.88;5094828;28;20596;-67
2023/10/14 07:27:51;;;;;;;17.52;16.73;;;;;;;-141.02;78.78;41857.00;5095014;28;20197;-67
2023/10/14 07:30:26;;;;;;;17.58;16.77;;;;;;;-141.02;77.24;41922.25;5095044;28;20182;-67
2023/10/14 07:32:53;;;;;;;17.67;16.88;;;;;;;-141.02;76.53;41941.44;5094880;28;20208;-67
2023/10/14 07:35:20;;;;;;;17.75;16.90;;;;;;;-141.02;74.77;41981.75;5094558;28;20288;-67
2023/10/14 07:37:49;;;;;;;17.77;16.98;;;;;;;-141.02;73.29;42052.78;5094720;28;20200;-67
2023/10/14 07:40:23;;;;;;;18.50;17.60;;;;;;;-141.02;72.87;42048.94;5094506;28;20201;-67
2023/10/14 07:42:53;;;;;;;17.45;16.65;;;;;;;-141.02;71.36;42083.47;5094759;28;20185;-67
2023/10/14 07:45:22;;;;;;;17.38;16.58;;;;;;;-141.02;71.32;42121.88;5094406;28;20194;-65
2023/10/14 07:47:50;;;;;;;17.58;16.67;;;;;;;-141.02;69.81;42142.97;5094337;28;20197;-67
2023/10/14 07:50:17;;;;;;;18.02;17.13;;;;;;;-141.02;68.88;42167.94;5094584;28;20198;-66
2023/10/14 07:52:45;;;;;;;17.48;16.67;;;;;;;-141.02;68.07;42190.97;5094106;28;20222;-67
2023/10/14 07:55:15;;;;;;;17.52;16.73;;;;;;;-141.02;67.48;42187.13;5094235;28;20292;-67
2023/10/14 07:57:46;;;;;;;17.48;16.67;;;;;;;-141.02;67.14;42198.63;5094183;28;20644;-67
2023/10/14 08:00:14;;;;;;;17.55;16.75;;;;;;;-141.02;66.20;42237.03;5094108;28;20657;-67
2023/10/14 08:02:44;;;;;;;17.58;16.73;;;;;;;-141.02;64.47;42240.88;5094524;28;20277;-65
2023/10/14 08:05:12;;;;;;;18.00;17.10;;;;;;;-141.02;63.62;42294.63;5094659;28;20641;-66
2023/10/14 08:07:41;;;;;;;17.63;16.83;;;;;;;-141.02;64.71;42317.66;5094268;28;20195;-66
2023/10/14 08:10:19;;;;;;;17.65;16.85;;;;;;;-141.02;63.80;42325.31;5094139;28;20198;-67
2023/10/14 08:12:46;;;;;;;17.48;16.67;;;;;;;-141.02;63.96;42409.78;5093860;28;20285;-67
2023/10/14 08:15:17;;;;;;;17.20;16.40;;;;;;;-141.02;64.18;42404.03;5094025;28;20284;-67
2023/10/14 08:17:48;;;;;;;17.20;16.40;;;;;;;-141.02;63.58;42425.13;5093782;28;20243;-67
2023/10/14 08:20:18;;;;;;;17.27;16.48;;;;;;;-141.02;62.22;42421.28;5094199;28;20263;-66
2023/10/14 08:22:47;;;;;;;17.13;16.30;;;;;;;-141.02;61.09;42461.59;5093666;28;20659;-65
2023/10/14 08:25:18;;;;;;;17.55;16.65;;;;;;;-141.02;60.50;42473.13;5093693;28;20197;-65
2023/10/14 08:27:46;;;;;;;17.77;16.88;;;;;;;-141.02;60.39;42524.94;5093870;28;20243;-67
2023/10/14 08:30:16;;;;;;;17.35;16.45;;;;;;;-141.02;60.43;42532.63;5093798;28;20305;-67
2023/10/14 08:32:46;;;;;;;17.27;16.48;;;;;;;-141.02;59.15;42555.66;5093469;28;20233;-68
2023/10/14 08:35:17;;;;;;;16.95;16.15;;;;;;;-141.02;59.08;42613.25;5093436;28;20221;-66
2023/10/14 08:37:47;;;;;;;17.17;16.38;;;;;;;-141.02;58.13;42592.13;5093622;28;20559;-58
2023/10/14 08:40:19;;;;;;;17.35;16.55;;;;;;;-141.02;57.73;42636.28;5093267;28;20632;-59
2023/10/14 08:42:51;;;;;;;17.25;16.45;;;;;;;-141.02;57.60;42594.06;5093732;28;20554;-67
2023/10/14 08:45:21;;;;;;;17.23;16.42;;;;;;;-141.02;57.12;42661.25;5093499;28;20306;-68
2023/10/14 08:47:54;;;;;;;16.50;15.70;;;;;;;-141.02;57.33;42680.44;5093156;28;20229;-67
2023/10/14 08:50:23;;;;;;;16.98;16.17;;;;;;;-141.02;57.42;42724.59;5093521;28;20190;-63
2023/10/14 08:52:53;;;;;;;17.05;16.25;;;;;;;-141.02;57.00;42686.19;5093133;28;20197;-63
2023/10/14 08:55:21;;;;;;;16.80;16.00;;;;;;;-141.02;56.81;42728.44;5093305;28;20312;-65
2023/10/14 08:57:49;;;;;;;16.70;15.90;;;;;;;-141.02;55.88;42693.88;5093299;28;20197;-66
2023/10/14 09:00:23;;;;;;;16.95;16.15;;;;;;;-141.02;55.71;42730.34;5093187;28;20288;-67
2023/10/14 09:02:55;;;;;;;16.95;16.15;;;;;;;-141.02;55.23;42770.66;5093324;28;20270;-69
2023/10/14 09:05:26;;;;;;;16.67;15.88;;;;;;;-141.02;55.11;42774.50;5093173;28;20269;-67
2023/10/14 09:07:58;;;;;;;16.73;15.93;;;;;;;-141.02;55.09;42816.75;5093151;28;20193;-68
2023/10/14 09:10:25;;;;;;;16.70;15.90;;;;;;;-141.02;54.66;42797.53;5093064;28;20207;-69
2023/10/14 09:12:57;;;;;;;16.50;15.77;;;;;;;-141.02;54.33;42832.09;5093041;28;20233;-69
2023/10/14 09:15:26;;;;;;;16.33;15.63;;;;;;;-141.02;54.36;42851.28;5092542;28;20667;-68
2023/10/14 09:17:58;;;;;;;16.35;15.65;;;;;;;-141.02;54.33;42849.38;5092634;28;20206;-66
2023/10/14 09:20:29;;;;;;;17.13;16.33;;;;;;;-141.02;54.47;42874.34;5092949;28;20221;-67
2023/10/14 09:23:17;;;;;;;16.60;15.90;;;;;;;-141.02;54.34;42862.81;5092458;28;20229;-69
2023/10/14 09:25:46;;;;;;;16.92;16.13;;;;;;;-141.02;53.11;42906.97;5092480;28;20665;-68
2023/10/14 09:28:16;;;;;;;17.10;16.30;;;;;;;-141.02;53.25;42928.09;5092834;28;20196;-68
2023/10/14 09:30:46;;;;;;;16.95;16.15;;;;;;;-141.02;53.50;42939.59;5092807;28;20254;-68
2023/10/14 09:33:19;;;;;;;17.25;16.45;;;;;;;-141.02;52.87;42968.41;5092436;28;20236;-68
2023/10/14 09:35:49;;;;;;;17.40;16.50;;;;;;;-141.02;53.52;42954.97;5092369;28;20190;-69
2023/10/14 09:38:21;;;;;;;17.23;16.42;;;;;;;-141.02;53.15;42962.66;5092615;28;20201;-68
2023/10/14 09:40:54;;;;;;;17.15;16.35;;;;;;;-141.02;53.43;42993.34;5092589;28;20186;-69
2023/10/14 09:43:23;;;;;;;16.73;15.93;;;;;;;-141.02;52.99;42966.47;5092600;28;20192;-68
2023/10/14 09:45:55;;;;;;;16.70;15.90;;;;;;;-141.02;53.44;42989.53;5092601;28;20220;-69
2023/10/14 09:48:26;;;;;;;16.52;15.77;;;;;;;-141.02;52.41;43014.47;5092612;28;20190;-68
2023/10/14 09:50:54;;;;;;;16.50;15.80;;;;;;;-141.02;52.71;43020.25;5092239;28;20255;-69
2023/10/14 09:53:27;;;;;;;16.35;15.65;;;;;;;-141.02;53.03;43031.75;5092107;28;20221;-64
2023/10/14 09:55:56;;;;;;;16.48;15.77;;;;;;;-141.02;51.64;43001.03;5092088;28;20206;-66
2023/10/14 09:58:25;;;;;;;16.48;15.77;;;;;;;-141.02;51.51;42978.00;5092016;28;20197;-65
2023/10/14 10:00:53;;;;;;;16.52;15.82;;;;;;;-141.02;51.15;42985.69;5092430;28;20276;-69
2023/10/14 10:03:21;;;;;;;16.60;15.90;;;;;;;-141.02;51.83;43054.78;5092131;28;20284;-68
2023/10/14 10:06:05;;;;;;;16.50;15.80;;;;;;;-141.02;51.16;43035.59;5092286;28;20201;-67
2023/10/14 10:08:49;;;;;;;16.50;15.80;;;;;;;-141.02;50.95;43029.84;5092357;28;20197;-66
2023/10/14 10:11:23;;;;;;;16.80;16.10;;;;;;;-141.02;51.14;43070.16;5092274;28;20190;-68
2023/10/14 10:13:51;;;;;;;16.67;15.88;;;;;;;-141.02;51.25;43085.50;5091923;28;20190;-68
2023/10/14 10:16:21;;;;;;;16.27;15.57;;;;;;;-141.02;51.32;43085.50;5093004;28;20200;-68
2023/10/14 10:18:53;;;;;;;16.38;15.68;;;;;;;-141.02;51.34;43066.31;5091826;28;20189;-67
2023/10/14 10:21:21;;;;;;;16.55;15.85;;;;;;;-141.02;51.08;43083.59;5091836;28;20229;-67
2023/10/14 10:23:56;;;;;;;16.33;15.60;;;;;;;-141.02;51.22;43081.66;5092090;28;20204;-69
2023/10/14 10:26:24;;;;;;;16.55;15.85;;;;;;;-141.02;52.15;43122.00;5091944;28;20201;-67
2023/10/14 10:28:51;;;;;;;16.45;15.75;;;;;;;-141.02;51.57;43093.19;5092060;28;20247;-67
2023/10/14 10:31:23;;;;;;;16.17;15.48;;;;;;;-141.02;51.42;43093.19;5091774;28;20229;-65
2023/10/14 10:33:55;;;;;;;16.23;15.52;;;;;;;-141.02;50.61;43089.34;5092002;28;20182;-66
2023/10/14 10:36:25;;;;;;;16.38;15.68;;;;;;;-141.02;50.80;43110.47;5095273;28;20742;-67
2023/10/14 10:38:54;;;;;;;16.52;15.82;;;;;;;-141.02;49.57;43085.50;5095744;28;20665;-68
2023/10/14 10:41:27;;;;;;;16.45;15.75;;;;;;;-141.02;49.82;43122.00;5095901;28;20198;-67
2023/10/14 10:44:02;;;;;;;16.35;15.65;;;;;;;-141.02;50.21;43123.91;5095586;28;20221;-68
2023/10/14 10:46:30;;;;;;;16.40;15.70;;;;;;;-141.02;50.83;43074.00;5095606;28;20639;-65
2023/10/14 10:48:57;;;;;;;16.52;15.82;;;;;;;-141.02;50.18;43170.00;5095439;28;20197;-67
2023/10/14 10:51:31;;;;;;;16.50;15.80;;;;;;;-141.02;49.69;43158.47;5095393;28;20269;-67
2023/10/14 10:54:00;;;;;;;16.67;15.98;;;;;;;-141.02;49.61;43189.19;5095517;28;20243;-68
2023/10/14 10:56:30;;;;;;;16.58;15.88;;;;;;;-141.02;50.20;43193.03;5095268;28;20197;-68
2023/10/14 10:58:58;;;;;;;16.83;16.13;;;;;;;-141.02;50.05;43208.38;5095272;28;20194;-66
2023/10/14 11:01:25;;;;;;;16.83;16.13;;;;;;;-141.02;49.90;43219.91;5095468;28;20220;-69
2023/10/14 11:03:52;;;;;;;16.80;16.10;;;;;;;-141.02;50.07;43193.03;5095550;28;20276;-68
2023/10/14 11:06:20;;;;;;;16.52;15.82;;;;;;;-141.02;49.93;43206.47;5095395;28;20284;-67
2023/10/14 11:08:48;;;;;;;16.77;16.08;;;;;;;-141.02;50.31;43210.31;5095087;28;20198;-69
2023/10/14 11:11:16;;;;;;;16.70;16.00;;;;;;;-141.02;51.08;43231.44;5095250;28;20284;-67
2023/10/14 11:13:43;;;;;;;16.60;15.90;;;;;;;-141.02;50.34;43223.75;5095019;28;20200;-67
2023/10/14 11:16:12;;;;;;;16.55;15.85;;;;;;;-141.02;49.70;43227.59;5094923;28;20725;-70
2023/10/14 11:18:47;;;;;;;16.70;16.00;;;;;;;-141.02;49.83;43246.78;5095195;28;20563;-69
2023/10/14 11:21:15;;;;;;;16.75;16.05;;;;;;;-141.02;49.92;43250.63;5094809;28;20185;-68
2023/10/14 11:23:43;;;;;;;16.75;16.05;;;;;;;-141.02;50.03;43242.94;5095060;28;20190;-69
2023/10/14 11:26:15;;;;;;;16.80;16.10;;;;;;;-141.02;49.98;43254.47;5095070;28;20190;-68